LIPX METAR and TAF | Updated Today

LIPX METAR

Verona Villafranca Airport

Observation time: 9 min. ago

LIPX 062020Z 09007KT 060V120 9999 SCT060 02/M03 Q1034

Need help? Read our tutorial on how to read METARs or read the parsed version below.

Verona Villafranca Airport (LIPX) METAR

  • Weather conditions on Mon, 06 Feb 2023 20:20:00 +0000 (9 min. ago):
  • Present conditions: Dry
  • Clouds: Scattered at 1829 meters
  • Visibility: Greater than 10 km
  • Wind: 90 degrees at 7 knots
  • Temperature: 2 celsius
  • Dew point: -3 celsius
  • Pressure: 1034 millibars
  • Remarks: None


Useful to know...

LIPX TAF

Verona Villafranca Airport

TAF LIPX 061700Z 0618/0718 07010KT 9999 BKN040 BECMG 0710/0712 26006KT
Observation time: 3:29 hr. ago
Need help? Read our tutorial on how to read TAFs or read the parsed version below.

Parsed version of TAF for Verona Villafranca Airport (LIPX)

  • From 06 February at 18:00 UTC, to day 07 of the month at 18:00 UTC
  • Clouds: Broken sky at 1219 meters
  • Visibility: Greater than 10 km
  • Wind: 70 degrees at 10
  • Expected to arise soon, from 07 February at 10:00 UTC, to day 07 of the month at 12:00 UTC
  • Wind: 260 degrees at 6